Check out our new PWSWeather beta!
PWSweather.com
Personal Weather Stations
Station Observations
CLIFTONPWS
PenrithGB CA102ES

PenrithGB CA102ES

Lat: 54.630933, Lon: -2.718524

Elevation: 521

Station Type: Maplin N96GY

http://www.cliftonpws.co.uk/weather

Latest ConditionsUpdated 6:15:00 PM GMT Monday, Feb 24, 2020
Currently Today's Max Today's Min Today's Average
Temperature 40.5°F4.7°C 48.9°F9.4°C 33.4°F0.8°C 38.5°F3.6°C
Dew Point 37.2°F2.9°C 47.9°F8.8°C 31.3°F-0.4°C 36.3°F2.4°C
Winds Calm Calm Calm -Calm - - Calm Calm
Wind Gusts -- -- - -
Humidity 88% 99% 82% 92%
Pressure 29.44 in997.0 mb 30.10 in1019.3 mb 29.32 in992.9 mb -
Precipitation - 0.63 in16.0 mm - -
Hour Temp Dew Point Humidity Winds Wind Gusts Pressure Precip Precip Rate Daily Precip Total
06:15 PM 40.5°F4.7°C 37.2°F2.9°C 88% Calm Calm -- 29.44 in997.0 mb 0.00 in0.0 mm 0.00 in0.0 mm 0.63 in16.0 mm
06:00 PM 40.3°F4.6°C 37.9°F3.3°C 91% Calm Calm -- 29.43 in996.6 mb 0.01 in0.3 mm 0.00 in0.0 mm 0.63 in16.0 mm
05:45 PM 40.1°F4.5°C 38.2°F3.4°C 93% Calm Calm -- 29.42 in996.3 mb 0.01 in0.3 mm 0.00 in0.0 mm 0.63 in16.0 mm
05:30 PM 40.1°F4.5°C 38.0°F3.3°C 92% Calm Calm -- 29.40 in995.6 mb 0.01 in0.3 mm 0.00 in0.0 mm 0.63 in16.0 mm
05:15 PM 40.5°F4.7°C 37.8°F3.2°C 90% Calm Calm -- 29.39 in995.3 mb 0.01 in0.3 mm 0.04 in1.0 mm 0.63 in16.0 mm
05:00 PM 40.8°F4.9°C 37.8°F3.2°C 89% Calm Calm -- 29.39 in995.3 mb 0.00 in0.0 mm 0.00 in0.0 mm 0.61 in15.5 mm
04:45 PM 41.5°F5.3°C 38.3°F3.5°C 88% Calm Calm -- 29.38 in994.9 mb 0.00 in0.0 mm 0.00 in0.0 mm 0.61 in15.5 mm
04:30 PM 41.7°F5.4°C 38.1°F3.4°C 87% Calm Calm -- 29.38 in994.9 mb 0.00 in0.0 mm 0.00 in0.0 mm 0.61 in15.5 mm
04:15 PM 42.3°F5.7°C 39.2°F4.0°C 89% Calm Calm -- 29.38 in994.9 mb 0.00 in0.0 mm 0.00 in0.0 mm 0.61 in15.5 mm
04:00 PM 43.0°F6.1°C 40.0°F4.4°C 89% Calm Calm -- 29.37 in994.6 mb 0.01 in0.3 mm 0.00 in0.0 mm 0.61 in15.5 mm
03:45 PM 43.3°F6.3°C 40.0°F4.4°C 88% Calm Calm -- 29.36 in994.2 mb 0.02 in0.5 mm 0.00 in0.0 mm 0.61 in15.5 mm
03:30 PM 44.4°F6.9°C 40.5°F4.7°C 86% Calm Calm -- 29.35 in993.9 mb 0.05 in1.3 mm 0.00 in0.0 mm 0.61 in15.5 mm
03:15 PM 45.0°F7.2°C 41.6°F5.3°C 88% Calm Calm -- 29.35 in993.9 mb 0.08 in2.0 mm 0.00 in0.0 mm 0.61 in15.5 mm
03:00 PM 46.0°F7.8°C 42.4°F5.8°C 87% Calm Calm -- 29.35 in993.9 mb 0.12 in3.0 mm 0.00 in0.0 mm 0.60 in15.2 mm
02:45 PM 46.6°F8.1°C 43.8°F6.6°C 90% Calm Calm -- 29.33 in993.2 mb 0.18 in4.6 mm 0.00 in0.0 mm 0.59 in15.0 mm
02:30 PM 47.3°F8.5°C 45.1°F7.3°C 92% Calm Calm -- 29.33 in993.2 mb 0.22 in5.6 mm 0.00 in0.0 mm 0.57 in14.5 mm
02:15 PM 48.9°F9.4°C 46.7°F8.2°C 92% Calm Calm -- 29.33 in993.2 mb 0.26 in6.6 mm 0.00 in0.0 mm 0.53 in13.5 mm
02:00 PM 48.9°F9.4°C 47.0°F8.3°C 93% Calm Calm -- 29.32 in992.9 mb 0.28 in7.1 mm 0.00 in0.0 mm 0.48 in12.2 mm
01:45 PM 48.6°F9.2°C 47.7°F8.7°C 97% Calm Calm -- 29.33 in993.2 mb 0.28 in7.1 mm 0.04 in1.0 mm 0.41 in10.4 mm
01:30 PM 48.2°F9.0°C 47.9°F8.8°C 99% Calm Calm -- 29.33 in993.2 mb 0.27 in6.9 mm 0.20 in5.1 mm 0.34 in8.6 mm
01:15 PM 46.8°F8.2°C 46.5°F8.1°C 99% Calm Calm -- 29.34 in993.6 mb 0.22 in5.6 mm 0.28 in7.1 mm 0.27 in6.9 mm
01:00 PM 45.3°F7.4°C 45.1°F7.3°C 99% Calm Calm -- 29.34 in993.6 mb 0.15 in3.8 mm 0.09 in2.3 mm 0.20 in5.1 mm
12:45 PM 45.0°F7.2°C 44.7°F7.1°C 99% Calm Calm -- 29.35 in993.9 mb 0.08 in2.0 mm 0.24 in6.1 mm 0.13 in3.3 mm
12:30 PM 43.3°F6.3°C 43.1°F6.2°C 99% Calm Calm -- 29.36 in994.2 mb 0.02 in0.5 mm 0.08 in2.0 mm 0.07 in1.8 mm
12:15 PM 41.4°F5.2°C 41.1°F5.1°C 99% Calm Calm -- 29.36 in994.2 mb 0.00 in0.0 mm 0.00 in0.0 mm 0.05 in1.3 mm
12:00 PM 41.0°F5.0°C 40.7°F4.8°C 99% Calm Calm -- 29.37 in994.6 mb 0.00 in0.0 mm 0.00 in0.0 mm 0.05 in1.3 mm
11:45 AM 39.6°F4.2°C 39.3°F4.1°C 99% Calm Calm -- 29.38 in994.9 mb 0.00 in0.0 mm 0.00 in0.0 mm 0.05 in1.3 mm
11:30 AM 38.5°F3.6°C 38.2°F3.4°C 99% Calm Calm -- 29.39 in995.3 mb 0.00 in0.0 mm 0.00 in0.0 mm 0.05 in1.3 mm
11:15 AM 37.4°F3.0°C 37.1°F2.8°C 99% Calm Calm -- 29.40 in995.6 mb 0.00 in0.0 mm 0.00 in0.0 mm 0.05 in1.3 mm
11:00 AM 36.7°F2.6°C 36.4°F2.4°C 99% Calm Calm -- 29.41 in995.9 mb 0.00 in0.0 mm 0.00 in0.0 mm 0.05 in1.3 mm
10:45 AM 36.1°F2.3°C 35.9°F2.2°C 99% Calm Calm -- 29.42 in996.3 mb 0.00 in0.0 mm 0.00 in0.0 mm 0.05 in1.3 mm
10:30 AM 35.8°F2.1°C 35.5°F1.9°C 99% Calm Calm -- 29.43 in996.6 mb 0.00 in0.0 mm 0.00 in0.0 mm 0.05 in1.3 mm
10:15 AM 35.4°F1.9°C 35.2°F1.8°C 99% Calm Calm -- 29.45 in997.3 mb 0.00 in0.0 mm 0.00 in0.0 mm 0.05 in1.3 mm
10:00 AM 35.1°F1.7°C 34.8°F1.6°C 99% Calm Calm -- 29.46 in997.6 mb 0.00 in0.0 mm 0.00 in0.0 mm 0.05 in1.3 mm
09:45 AM 34.9°F1.6°C 34.6°F1.4°C 99% Calm Calm -- 29.47 in998.0 mb 0.00 in0.0 mm 0.00 in0.0 mm 0.05 in1.3 mm
09:30 AM 34.3°F1.3°C 34.1°F1.2°C 99% Calm Calm -- 29.49 in998.6 mb 0.00 in0.0 mm 0.00 in0.0 mm 0.05 in1.3 mm
09:15 AM 34.2°F1.2°C 33.9°F1.1°C 99% Calm Calm -- 29.51 in999.3 mb 0.00 in0.0 mm 0.00 in0.0 mm 0.05 in1.3 mm
09:00 AM 34.0°F1.1°C 33.7°F0.9°C 99% Calm Calm -- 29.52 in999.7 mb 0.00 in0.0 mm 0.00 in0.0 mm 0.05 in1.3 mm
08:45 AM 33.6°F0.9°C 33.1°F0.6°C 98% Calm Calm -- 29.53 in1000.0 mb 0.00 in0.0 mm 0.00 in0.0 mm 0.05 in1.3 mm
08:30 AM 33.6°F0.9°C 33.1°F0.6°C 98% Calm Calm -- 29.55 in1000.7 mb 0.00 in0.0 mm 0.00 in0.0 mm 0.05 in1.3 mm
08:15 AM 33.4°F0.8°C 32.9°F0.5°C 98% Calm Calm -- 29.56 in1001.0 mb 0.00 in0.0 mm 0.00 in0.0 mm 0.05 in1.3 mm
08:00 AM 33.6°F0.9°C 32.9°F0.5°C 97% Calm Calm -- 29.58 in1001.7 mb 0.00 in0.0 mm 0.00 in0.0 mm 0.05 in1.3 mm
07:45 AM 33.6°F0.9°C 32.9°F0.5°C 97% Calm Calm -- 29.60 in1002.4 mb 0.00 in0.0 mm 0.00 in0.0 mm 0.05 in1.3 mm
07:30 AM 33.4°F0.8°C 32.4°F0.2°C 96% Calm Calm -- 29.62 in1003.0 mb 0.00 in0.0 mm 0.00 in0.0 mm 0.05 in1.3 mm
07:15 AM 33.6°F0.9°C 32.6°F0.3°C 96% Calm Calm -- 29.64 in1003.7 mb 0.00 in0.0 mm 0.00 in0.0 mm 0.05 in1.3 mm
07:00 AM 33.6°F0.9°C 32.6°F0.3°C 96% Calm Calm -- 29.65 in1004.1 mb 0.00 in0.0 mm 0.00 in0.0 mm 0.05 in1.3 mm
06:45 AM 33.4°F0.8°C 32.2°F0.1°C 95% Calm Calm -- 29.67 in1004.7 mb 0.00 in0.0 mm 0.00 in0.0 mm 0.05 in1.3 mm
06:30 AM 33.4°F0.8°C 31.9°F-0.1°C 94% Calm Calm -- 29.70 in1005.8 mb 0.00 in0.0 mm 0.00 in0.0 mm 0.05 in1.3 mm
06:15 AM 33.4°F0.8°C 31.9°F-0.1°C 94% Calm Calm -- 29.72 in1006.4 mb 0.00 in0.0 mm 0.00 in0.0 mm 0.05 in1.3 mm
06:00 AM 33.6°F0.9°C 31.8°F-0.1°C 93% Calm Calm -- 29.75 in1007.5 mb 0.00 in0.0 mm 0.00 in0.0 mm 0.05 in1.3 mm
05:45 AM 33.6°F0.9°C 31.5°F-0.3°C 92% Calm Calm -- 29.78 in1008.5 mb 0.00 in0.0 mm 0.00 in0.0 mm 0.05 in1.3 mm
05:30 AM 33.6°F0.9°C 31.3°F-0.4°C 91% Calm Calm -- 29.80 in1009.1 mb 0.00 in0.0 mm 0.00 in0.0 mm 0.05 in1.3 mm
05:15 AM 34.0°F1.1°C 31.6°F-0.2°C 91% Calm Calm -- 29.83 in1010.2 mb 0.01 in0.3 mm 0.00 in0.0 mm 0.05 in1.3 mm
05:00 AM 34.3°F1.3°C 31.7°F-0.2°C 90% Calm Calm -- 29.85 in1010.8 mb 0.02 in0.5 mm 0.00 in0.0 mm 0.05 in1.3 mm
04:45 AM 34.9°F1.6°C 32.0°F0.0°C 89% Calm Calm -- 29.86 in1011.2 mb 0.04 in1.0 mm 0.00 in0.0 mm 0.05 in1.3 mm
04:30 AM 35.4°F1.9°C 32.2°F0.1°C 88% Calm Calm -- 29.88 in1011.9 mb 0.05 in1.3 mm 0.04 in1.0 mm 0.05 in1.3 mm
04:15 AM 36.0°F2.2°C 32.5°F0.3°C 87% Calm Calm -- 29.89 in1012.2 mb 0.04 in1.0 mm 0.08 in2.0 mm 0.04 in1.0 mm
04:00 AM 37.0°F2.8°C 33.5°F0.8°C 87% Calm Calm -- 29.92 in1013.2 mb 0.02 in0.5 mm 0.01 in0.3 mm 0.02 in0.5 mm
03:45 AM 37.6°F3.1°C 33.8°F1.0°C 86% Calm Calm -- 29.93 in1013.5 mb 0.01 in0.3 mm 0.04 in1.0 mm 0.01 in0.3 mm
03:30 AM 37.6°F3.1°C 33.5°F0.8°C 85% Calm Calm -- 29.94 in1013.9 mb 0.00 in0.0 mm 0.00 in0.0 mm 0.00 in0.0 mm
03:15 AM 37.4°F3.0°C 33.3°F0.7°C 85% Calm Calm -- 29.96 in1014.6 mb 0.00 in0.0 mm 0.00 in0.0 mm 0.00 in0.0 mm
03:00 AM 36.9°F2.7°C 32.5°F0.3°C 84% Calm Calm -- 29.96 in1014.6 mb 0.00 in0.0 mm 0.00 in0.0 mm 0.00 in0.0 mm
02:45 AM 36.9°F2.7°C 32.5°F0.3°C 84% Calm Calm -- 29.98 in1015.2 mb 0.00 in0.0 mm 0.00 in0.0 mm 0.00 in0.0 mm
02:30 AM 36.7°F2.6°C 32.3°F0.2°C 84% Calm Calm -- 29.98 in1015.2 mb 0.00 in0.0 mm 0.00 in0.0 mm 0.00 in0.0 mm
02:15 AM 36.9°F2.7°C 32.5°F0.3°C 84% Calm Calm -- 29.99 in1015.6 mb 0.00 in0.0 mm 0.00 in0.0 mm 0.00 in0.0 mm
02:00 AM 37.0°F2.8°C 32.7°F0.4°C 84% Calm Calm -- 30.00 in1015.9 mb 0.00 in0.0 mm 0.00 in0.0 mm 0.00 in0.0 mm
01:45 AM 37.0°F2.8°C 32.7°F0.4°C 84% Calm Calm -- 30.03 in1016.9 mb 0.00 in0.0 mm 0.00 in0.0 mm 0.00 in0.0 mm
01:30 AM 37.0°F2.8°C 32.7°F0.4°C 84% Calm Calm -- 30.05 in1017.6 mb 0.00 in0.0 mm 0.00 in0.0 mm 0.00 in0.0 mm
01:15 AM 37.0°F2.8°C 32.4°F0.2°C 83% Calm Calm -- 30.06 in1017.9 mb 0.00 in0.0 mm 0.00 in0.0 mm 0.00 in0.0 mm
01:00 AM 37.0°F2.8°C 32.7°F0.4°C 84% Calm Calm -- 30.07 in1018.3 mb 0.00 in0.0 mm 0.00 in0.0 mm 0.00 in0.0 mm
12:45 AM 36.9°F2.7°C 32.2°F0.1°C 83% Calm Calm -- 30.07 in1018.3 mb 0.00 in0.0 mm 0.00 in0.0 mm 0.00 in0.0 mm
12:30 AM 36.7°F2.6°C 32.0°F0.0°C 83% Calm Calm -- 30.09 in1019.0 mb 0.00 in0.0 mm 0.00 in0.0 mm 0.00 in0.0 mm
12:15 AM 36.7°F2.6°C 31.7°F-0.2°C 82% Calm Calm -- 30.09 in1019.0 mb 0.00 in0.0 mm 0.00 in0.0 mm 0.00 in0.0 mm
12:00 AM 36.7°F2.6°C 31.7°F-0.2°C 82% Calm Calm -- 30.10 in1019.3 mb 0.00 in0.0 mm 0.00 in0.0 mm 0.00 in0.0 mm